Time;durP1;ratioP1;P1;durP2;ratioP2;P2;SDS_P1;SDS_P2;PMS_P1;PMS_P2;Temp;Humidity;BMP_temperature;BMP_pressure;BME280_temperature;BME280_humidity;BME280_pressure;Samples;Min_cycle;Max_cycle;Signal;HPM_P1;HPM_P2
2022/05/07 00:01:28;;;;;;;1.93;1.73;;;23.40;54.40;;;;;;5008836;28;20421;-85
2022/05/07 00:03:54;;;;;;;2.30;1.83;;;23.40;54.40;;;;;;5010114;28;20431;-85
2022/05/07 00:06:41;;;;;;;1.80;1.70;;;23.40;54.40;;;;;;5008434;28;20184;-85
2022/05/07 00:09:07;;;;;;;1.83;1.53;;;23.40;54.40;;;;;;5009761;28;20158;-85
2022/05/07 00:11:33;;;;;;;1.60;1.50;;;23.30;54.80;;;;;;4992532;28;20420;-86
2022/05/07 00:13:58;;;;;;;1.50;1.37;;;23.40;54.40;;;;;;5008565;28;20416;-85
2022/05/07 00:19:09;;;;;;;1.87;1.60;;;23.40;54.40;;;;;;5008923;28;20264;-85
2022/05/07 00:21:36;;;;;;;2.50;1.80;;;23.40;54.40;;;;;;5008464;28;20416;-85
2022/05/07 00:24:03;;;;;;;1.60;1.50;;;23.40;54.40;;;;;;5007828;28;20438;-85
2022/05/07 00:26:31;;;;;;;1.80;1.50;;;23.40;54.40;;;;;;4992279;28;20442;-85
2022/05/07 00:28:57;;;;;;;1.60;1.47;;;23.40;54.40;;;;;;5009635;28;20424;-85
2022/05/07 00:31:23;;;;;;;1.50;1.40;;;23.40;54.40;;;;;;5009248;28;20575;-85
2022/05/07 00:33:49;;;;;;;1.70;1.60;;;23.40;54.40;;;;;;5009560;28;20173;-86
2022/05/07 00:36:17;;;;;;;2.13;1.90;;;23.40;54.40;;;;;;5009218;28;20206;-85
2022/05/07 00:38:44;;;;;;;1.90;1.63;;;23.40;54.40;;;;;;5024748;28;20181;-86
2022/05/07 00:41:11;;;;;;;1.63;1.53;;;23.40;54.40;;;;;;5008747;28;20428;-85
2022/05/07 00:43:40;;;;;;;1.97;1.73;;;23.40;54.40;;;;;;4998001;28;20468;-85
2022/05/07 00:46:06;;;;;;;2.03;1.83;;;23.40;54.40;;;;;;4988261;28;20441;-86
2022/05/07 00:48:33;;;;;;;1.63;1.47;;;23.40;54.40;;;;;;4988998;28;20413;-86
2022/05/07 00:53:46;;;;;;;1.60;1.40;;;23.40;54.40;;;;;;4990294;28;20430;-85
2022/05/07 00:56:12;;;;;;;1.83;1.50;;;23.40;54.40;;;;;;4989006;28;20477;-85
2022/05/07 00:58:38;;;;;;;1.57;1.47;;;23.30;54.30;;;;;;4993471;28;20420;-85
2022/05/07 01:01:05;;;;;;;2.37;1.80;;;23.30;54.30;;;;;;5009031;28;20484;-85
2022/05/07 01:03:31;;;;;;;1.50;1.20;;;23.30;54.30;;;;;;5024410;28;20416;-86
2022/05/07 01:05:57;;;;;;;3.00;1.67;;;23.30;54.30;;;;;;5008242;28;20424;-85
2022/05/07 01:08:25;;;;;;;1.50;1.40;;;23.30;54.30;;;;;;5007947;28;20504;-85
2022/05/07 01:10:52;;;;;;;3.10;1.70;;;23.40;54.40;;;;;;5008990;28;20184;-85
2022/05/07 01:13:21;;;;;;;1.63;1.53;;;23.30;54.30;;;;;;5008865;28;20412;-85
2022/05/07 01:15:55;;;;;;;2.00;1.60;;;23.40;54.40;;;;;;5007542;28;20504;-85
2022/05/07 01:18:21;;;;;;;1.77;1.40;;;23.30;54.30;;;;;;5005196;28;20463;-86
2022/05/07 01:20:47;;;;;;;1.90;1.60;;;23.30;54.30;;;;;;5006729;28;20421;-85
2022/05/07 01:23:13;;;;;;;1.60;1.50;;;23.30;54.30;;;;;;5000330;28;20413;-85
2022/05/07 01:25:40;;;;;;;1.83;1.70;;;23.40;54.40;;;;;;5006844;28;20253;-86
2022/05/07 01:28:06;;;;;;;2.07;1.87;;;23.40;54.40;;;;;;5007051;28;20448;-85
2022/05/07 01:31:16;;;;;;;1.97;1.33;;;23.40;54.40;;;;;;5002871;28;20443;-85
2022/05/07 01:33:42;;;;;;;2.00;1.30;;;23.40;54.40;;;;;;5001502;28;20189;-85
2022/05/07 01:36:11;;;;;;;1.63;1.53;;;23.30;54.30;;;;;;5007163;28;20495;-86
2022/05/07 01:38:37;;;;;;;2.13;1.70;;;23.30;54.40;;;;;;5005774;28;20475;-85
2022/05/07 01:41:06;;;;;;;1.53;1.43;;;23.40;54.40;;;;;;5006566;28;20416;-86
2022/05/07 01:43:35;;;;;;;2.30;1.30;;;23.40;54.40;;;;;;5006758;28;20511;-86
2022/05/07 01:46:01;;;;;;;1.40;1.30;;;23.40;54.40;;;;;;5006673;28;20432;-86
2022/05/07 01:48:27;;;;;;;1.50;1.40;;;23.40;54.40;;;;;;4981793;28;20441;-86
2022/05/07 01:50:54;;;;;;;1.60;1.30;;;23.40;54.40;;;;;;5007925;28;20421;-86
2022/05/07 01:53:20;;;;;;;1.57;1.30;;;23.40;54.40;;;;;;5006883;28;20488;-85
2022/05/07 01:55:46;;;;;;;1.43;1.27;;;23.40;54.40;;;;;;5008120;28;20439;-85
2022/05/07 01:58:12;;;;;;;2.53;1.80;;;23.40;54.40;;;;;;5003458;28;20452;-85
2022/05/07 02:00:43;;;;;;;1.77;1.40;;;23.40;54.40;;;;;;5010135;28;20450;-84
2022/05/07 02:03:09;;;;;;;1.93;1.70;;;23.40;54.40;;;;;;5010192;28;20424;-84
2022/05/07 02:05:35;;;;;;;2.20;1.87;;;23.40;54.40;;;;;;5010849;28;20460;-84
2022/05/07 02:08:04;;;;;;;1.43;1.23;;;23.40;54.40;;;;;;5009786;28;20504;-84
2022/05/07 02:10:30;;;;;;;1.53;1.33;;;23.40;54.40;;;;;;5005814;28;20425;-85
2022/05/07 02:12:56;;;;;;;1.70;1.30;;;23.40;54.40;;;;;;5002173;28;20419;-84
2022/05/07 02:15:22;;;;;;;1.80;1.70;;;23.40;54.40;;;;;;5004617;28;20451;-85
2022/05/07 02:17:48;;;;;;;1.83;1.63;;;23.40;54.40;;;;;;5010808;28;20460;-85
2022/05/07 02:20:19;;;;;;;1.73;1.30;;;23.40;54.40;;;;;;5010694;28;20177;-85
2022/05/07 02:22:45;;;;;;;1.50;1.40;;;23.40;54.40;;;;;;5010299;28;20182;-85
2022/05/07 02:25:12;;;;;;;1.67;1.57;;;23.40;54.40;;;;;;5009443;28;20488;-84
2022/05/07 02:27:38;;;;;;;1.37;1.23;;;23.40;54.40;;;;;;5004410;28;20185;-85
2022/05/07 02:30:06;;;;;;;1.30;1.20;;;23.40;54.40;;;;;;5003219;28;20434;-84
2022/05/07 02:32:32;;;;;;;1.50;1.27;;;23.40;54.40;;;;;;5010321;28;20435;-85
2022/05/07 02:34:57;;;;;;;1.97;1.40;;;23.30;54.30;;;;;;5009256;28;20424;-84
2022/05/07 02:37:23;;;;;;;1.80;1.40;;;23.40;54.40;;;;;;5006049;28;20214;-84
2022/05/07 02:39:50;;;;;;;1.30;1.20;;;23.40;54.40;;;;;;5007415;28;20181;-85
2022/05/07 02:45:01;;;;;;;1.53;1.20;;;23.40;54.30;;;;;;5010131;28;20403;-85
2022/05/07 02:47:28;;;;;;;1.50;1.40;;;23.40;54.30;;;;;;5008796;28;20762;-85
2022/05/07 02:49:56;;;;;;;1.33;1.20;;;23.40;54.30;;;;;;5007605;28;20428;-85
2022/05/07 02:52:22;;;;;;;2.00;1.40;;;23.40;54.30;;;;;;4998239;28;20438;-85
2022/05/07 02:54:50;;;;;;;1.83;1.70;;;23.40;54.30;;;;;;5006917;28;20442;-85
2022/05/07 02:57:16;;;;;;;1.77;1.43;;;23.40;54.30;;;;;;5010221;28;20475;-86
2022/05/07 02:59:42;;;;;;;1.57;1.33;;;23.40;54.30;;;;;;5008598;28;20433;-85
2022/05/07 03:02:10;;;;;;;1.77;1.40;;;23.40;54.30;;;;;;4998874;28;20496;-86
2022/05/07 03:04:36;;;;;;;1.40;1.27;;;23.40;54.30;;;;;;4990078;28;20178;-85
2022/05/07 03:07:02;;;;;;;1.50;1.40;;;23.30;54.30;;;;;;4979165;28;20420;-86
2022/05/07 03:09:28;;;;;;;1.50;1.40;;;23.30;54.30;;;;;;4991582;28;20425;-85
2022/05/07 03:11:54;;;;;;;1.47;1.37;;;23.30;54.30;;;;;;4989572;28;20996;-85
2022/05/07 03:14:20;;;;;;;1.40;1.27;;;23.30;54.30;;;;;;4990554;28;20213;-85
2022/05/07 03:16:48;;;;;;;1.50;1.40;;;23.30;54.40;;;;;;5001666;28;20232;-85
2022/05/07 03:19:14;;;;;;;1.50;1.40;;;23.30;54.40;;;;;;4991110;28;20409;-85
2022/05/07 03:21:42;;;;;;;1.60;1.50;;;23.30;54.40;;;;;;4998625;28;20428;-86
2022/05/07 03:24:10;;;;;;;1.50;1.33;;;23.40;54.50;;;;;;4993283;28;20424;-85
2022/05/07 03:26:36;;;;;;;1.70;1.40;;;23.40;54.40;;;;;;5004806;28;20434;-86
2022/05/07 03:29:01;;;;;;;1.40;1.30;;;23.40;54.40;;;;;;5007883;28;20436;-85
2022/05/07 03:31:27;;;;;;;1.50;1.20;;;23.40;54.40;;;;;;5008080;28;20203;-85
2022/05/07 03:37:16;;;;;;;1.27;1.10;;;23.40;54.40;;;;;;5005381;28;20471;-85
2022/05/07 03:39:42;;;;;;;1.30;1.13;;;23.30;54.30;;;;;;5010573;28;20437;-85
2022/05/07 03:42:08;;;;;;;1.50;1.40;;;23.40;54.40;;;;;;5011852;28;20191;-85
2022/05/07 03:44:34;;;;;;;1.40;1.10;;;23.40;54.40;;;;;;5005372;28;20412;-86
2022/05/07 03:47:00;;;;;;;1.50;1.40;;;23.30;54.30;;;;;;5006900;28;20459;-86
2022/05/07 03:49:26;;;;;;;1.90;1.40;;;23.40;54.40;;;;;;5002015;28;20182;-85
2022/05/07 03:54:38;;;;;;;1.97;1.40;;;23.40;54.40;;;;;;5023873;28;20455;-86
2022/05/07 03:57:04;;;;;;;1.40;1.30;;;23.40;54.40;;;;;;5017152;28;20471;-85
2022/05/07 03:59:30;;;;;;;1.30;1.10;;;23.40;54.40;;;;;;5008099;28;20813;-85
2022/05/07 04:01:56;;;;;;;1.20;1.00;;;23.30;54.30;;;;;;5004808;28;20936;-86
2022/05/07 04:04:22;;;;;;;1.20;1.10;;;23.30;54.30;;;;;;5002381;28;20414;-86
2022/05/07 04:06:49;;;;;;;1.27;1.17;;;23.40;54.40;;;;;;5008846;28;20433;-85
2022/05/07 04:09:15;;;;;;;1.27;1.13;;;23.30;54.30;;;;;;5002961;28;20429;-86
2022/05/07 04:11:40;;;;;;;1.70;1.47;;;23.30;54.30;;;;;;5003452;28;20181;-86
2022/05/07 04:14:06;;;;;;;1.40;1.17;;;23.40;54.40;;;;;;5001712;28;20430;-85
2022/05/07 04:16:32;;;;;;;1.30;1.10;;;23.30;54.30;;;;;;5007281;28;20208;-85
2022/05/07 04:19:01;;;;;;;1.53;1.40;;;23.40;54.40;;;;;;5009082;28;20205;-86
2022/05/07 04:21:27;;;;;;;1.33;1.13;;;23.30;54.80;;;;;;5001992;28;20180;-86
2022/05/07 04:23:53;;;;;;;1.30;1.20;;;23.30;54.30;;;;;;5008712;28;20873;-85
2022/05/07 04:26:18;;;;;;;1.40;1.30;;;23.30;54.30;;;;;;5008400;28;20177;-85
2022/05/07 04:28:44;;;;;;;1.23;1.10;;;23.30;54.30;;;;;;5004342;28;20237;-86
2022/05/07 04:31:15;;;;;;;1.30;1.10;;;23.30;54.30;;;;;;5009008;28;20203;-86
2022/05/07 04:33:41;;;;;;;1.47;1.37;;;23.40;54.40;;;;;;5002039;28;20420;-86
2022/05/07 04:36:15;;;;;;;1.30;1.20;;;23.40;54.40;;;;;;5000186;28;20432;-86
2022/05/07 04:38:42;;;;;;;1.40;1.20;;;23.40;54.40;;;;;;5020910;28;20789;-84
2022/05/07 04:41:08;;;;;;;1.33;1.23;;;23.40;54.40;;;;;;5018546;28;20409;-85
2022/05/07 04:43:34;;;;;;;1.60;1.43;;;23.40;54.40;;;;;;5008045;28;20420;-85
2022/05/07 04:46:05;;;;;;;1.57;1.23;;;23.40;54.40;;;;;;5009118;28;20248;-85
2022/05/07 04:48:33;;;;;;;1.50;1.20;;;23.40;54.40;;;;;;5004204;28;20198;-85
2022/05/07 04:51:01;;;;;;;1.57;1.20;;;23.40;54.40;;;;;;5000451;28;20529;-86
2022/05/07 04:53:30;;;;;;;1.70;1.57;;;23.40;54.40;;;;;;5013976;28;20471;-84
2022/05/07 04:55:57;;;;;;;1.50;1.20;;;23.30;54.40;;;;;;5005948;28;20461;-85
2022/05/07 04:58:24;;;;;;;1.50;1.30;;;23.40;54.40;;;;;;5010753;28;20452;-84
2022/05/07 05:00:52;;;;;;;1.33;1.23;;;23.40;54.40;;;;;;5007466;28;20404;-85
2022/05/07 05:03:20;;;;;;;1.60;1.30;;;23.40;54.40;;;;;;5010303;28;20458;-84
2022/05/07 05:05:49;;;;;;;1.10;0.90;;;23.40;54.40;;;;;;5008847;28;20416;-85
2022/05/07 05:08:15;;;;;;;1.67;1.33;;;23.40;54.30;;;;;;5005636;28;20423;-85
2022/05/07 05:10:41;;;;;;;1.30;1.20;;;23.40;54.30;;;;;;5002721;28;20431;-84
2022/05/07 05:13:13;;;;;;;1.60;1.10;;;23.40;54.30;;;;;;5001212;28;20438;-84
2022/05/07 05:15:39;;;;;;;1.30;1.13;;;23.40;54.30;;;;;;5005950;28;20459;-85
2022/05/07 05:18:08;;;;;;;1.30;1.20;;;23.40;54.20;;;;;;5010257;28;20550;-85
2022/05/07 05:20:35;;;;;;;1.50;1.10;;;23.50;54.30;;;;;;4986825;28;20429;-84
2022/05/07 05:29:46;;;;;;;1.40;1.30;;;23.50;54.30;;;;;;5009149;28;20477;-85
2022/05/07 05:35:40;;;;;;;1.57;1.33;;;23.50;54.40;;;;;;5007095;28;20399;-84
2022/05/07 05:38:09;;;;;;;1.20;1.10;;;23.40;54.30;;;;;;5009382;28;20461;-84
2022/05/07 05:40:37;;;;;;;1.53;1.30;;;23.40;54.40;;;;;;5026021;28;20425;-84
2022/05/07 05:43:03;;;;;;;1.33;1.20;;;23.50;54.40;;;;;;5010450;28;20471;-84
2022/05/07 05:45:31;;;;;;;1.40;1.30;;;23.50;54.40;;;;;;5009251;28;20416;-84
2022/05/07 05:48:09;;;;;;;1.27;1.13;;;23.50;54.40;;;;;;5010036;28;20400;-84
2022/05/07 05:50:38;;;;;;;1.40;1.13;;;23.50;54.40;;;;;;4999059;28;20436;-84
2022/05/07 05:53:04;;;;;;;1.70;1.30;;;23.50;54.30;;;;;;5010952;28;20473;-84
2022/05/07 05:55:34;;;;;;;1.17;1.07;;;23.50;54.40;;;;;;5009898;28;20423;-84
2022/05/07 05:58:03;;;;;;;1.20;1.10;;;23.50;54.40;;;;;;4995379;28;20486;-84
2022/05/07 06:00:31;;;;;;;2.37;1.30;;;23.50;54.30;;;;;;5004111;28;20425;-84
2022/05/07 06:02:57;;;;;;;3.00;1.40;;;23.50;54.30;;;;;;5010080;28;20416;-84
2022/05/07 06:05:29;;;;;;;1.23;1.00;;;23.50;54.30;;;;;;5010853;28;20423;-84
2022/05/07 06:07:55;;;;;;;1.43;1.33;;;23.50;54.30;;;;;;5001831;28;20424;-84
2022/05/07 06:13:48;;;;;;;1.70;1.17;;;23.60;54.40;;;;;;4996018;28;20421;-84
2022/05/07 06:19:40;;;;;;;1.60;1.40;;;23.50;54.30;;;;;;4999872;28;20398;-85
2022/05/07 06:22:07;;;;;;;1.37;1.20;;;23.50;54.40;;;;;;5009505;28;20446;-84
2022/05/07 06:27:33;;;;;;;1.80;1.40;;;23.50;54.40;;;;;;5002885;28;20415;-84
2022/05/07 06:30:01;;;;;;;1.37;1.27;;;23.50;54.40;;;;;;4993056;28;20396;-84
2022/05/07 06:32:42;;;;;;;1.37;1.27;;;23.50;54.40;;;;;;5010349;28;20416;-84
2022/05/07 06:35:10;;;;;;;1.43;1.33;;;23.60;54.40;;;;;;4993640;28;20451;-84
2022/05/07 06:37:38;;;;;;;1.53;1.37;;;23.50;54.90;;;;;;5009614;28;20834;-84
2022/05/07 06:40:08;;;;;;;1.13;0.90;;;23.50;54.30;;;;;;5008242;28;20443;-87
2022/05/07 06:42:35;;;;;;;1.53;1.30;;;23.60;54.40;;;;;;4988427;28;20432;-85
2022/05/07 06:45:09;;;;;;;1.40;1.30;;;23.60;54.40;;;;;;4991606;28;20500;-84
2022/05/07 06:47:34;;;;;;;1.20;1.10;;;23.60;54.40;;;;;;5013156;28;20971;-84
2022/05/07 06:50:01;;;;;;;1.30;1.10;;;23.50;54.30;;;;;;5011132;28;20408;-86
2022/05/07 06:52:27;;;;;;;2.27;1.30;;;23.60;54.40;;;;;;5010869;28;20189;-84
2022/05/07 06:54:56;;;;;;;1.67;1.27;;;23.60;54.40;;;;;;5007425;28;20437;-84
2022/05/07 06:57:24;;;;;;;1.47;1.23;;;23.60;54.40;;;;;;5003962;28;20463;-88
2022/05/07 06:59:54;;;;;;;1.60;1.30;;;23.60;54.40;;;;;;5012147;28;20440;-85
2022/05/07 07:02:24;;;;;;;2.23;1.20;;;23.60;54.40;;;;;;5009348;28;20432;-85
2022/05/07 07:04:53;;;;;;;1.30;1.20;;;23.60;54.40;;;;;;5008454;28;20428;-86
2022/05/07 07:07:25;;;;;;;1.47;1.33;;;23.60;54.40;;;;;;5007174;28;20416;-87
2022/05/07 07:10:24;;;;;;;1.50;1.23;;;23.60;54.40;;;;;;5007637;28;20456;-84
2022/05/07 07:12:58;;;;;;;1.13;1.03;;;23.60;54.40;;;;;;5012800;28;20424;-84
2022/05/07 07:15:30;;;;;;;1.40;1.10;;;23.60;54.40;;;;;;4993924;28;20445;-84
2022/05/07 07:18:00;;;;;;;1.53;1.07;;;23.60;54.40;;;;;;5010258;28;20445;-84
2022/05/07 07:20:31;;;;;;;2.40;1.57;;;23.60;54.40;;;;;;5007967;28;20509;-84
2022/05/07 07:22:57;;;;;;;2.17;1.10;;;23.60;54.40;;;;;;5011793;28;20424;-84
2022/05/07 07:25:23;;;;;;;1.37;1.27;;;23.60;54.40;;;;;;5012116;28;20424;-84
2022/05/07 07:27:50;;;;;;;4.33;1.30;;;23.60;54.40;;;;;;5012290;28;20436;-84
2022/05/07 07:30:18;;;;;;;1.13;1.00;;;23.60;54.40;;;;;;5009202;28;20435;-84
2022/05/07 07:32:47;;;;;;;2.17;1.20;;;23.60;54.40;;;;;;5004863;28;20422;-84
2022/05/07 07:35:28;;;;;;;1.50;1.20;;;23.60;54.40;;;;;;5029788;28;20941;-84
2022/05/07 07:38:00;;;;;;;1.87;1.30;;;23.60;54.50;;;;;;5020629;28;20967;-83
2022/05/07 07:40:27;;;;;;;1.40;1.30;;;23.60;54.50;;;;;;5011613;28;20419;-83
2022/05/07 07:42:56;;;;;;;2.60;1.37;;;23.60;54.50;;;;;;5009693;28;20433;-83
2022/05/07 07:48:11;;;;;;;1.70;1.43;;;23.60;54.50;;;;;;5026561;28;20427;-83
2022/05/07 07:50:38;;;;;;;1.20;1.10;;;23.60;54.50;;;;;;5011831;28;20438;-83
2022/05/07 07:53:12;;;;;;;1.33;1.23;;;23.60;54.50;;;;;;5012110;28;20448;-83
2022/05/07 07:55:39;;;;;;;1.67;1.30;;;23.60;54.50;;;;;;5004652;28;20437;-83
2022/05/07 07:58:21;;;;;;;1.33;1.10;;;23.70;54.60;;;;;;5011424;28;20460;-83
2022/05/07 08:00:58;;;;;;;3.43;1.50;;;23.70;54.60;;;;;;5012917;28;20408;-83
2022/05/07 08:03:24;;;;;;;1.93;1.30;;;23.70;54.60;;;;;;5013207;28;20408;-83
2022/05/07 08:05:57;;;;;;;1.10;1.00;;;23.70;54.60;;;;;;5013023;28;20420;-83
2022/05/07 08:13:59;;;;;;;2.40;1.40;;;23.70;54.60;;;;;;5004539;28;20427;-83
2022/05/07 08:16:25;;;;;;;1.30;1.13;;;23.70;54.60;;;;;;5005454;28;20523;-84
2022/05/07 08:18:51;;;;;;;2.43;1.33;;;23.70;54.60;;;;;;5008743;28;20428;-84
2022/05/07 08:25:06;;;;;;;1.17;1.07;;;23.70;54.60;;;;;;5005680;28;20399;-83
2022/05/07 08:27:33;;;;;;;1.30;1.20;;;23.60;54.60;;;;;;5020013;28;20435;-84
2022/05/07 08:29:59;;;;;;;1.57;1.13;;;23.70;55.20;;;;;;4997372;28;20454;-84
2022/05/07 08:35:54;;;;;;;1.23;1.13;;;23.70;54.70;;;;;;5003318;28;20172;-84
2022/05/07 08:38:24;;;;;;;2.20;1.40;;;23.70;54.70;;;;;;5006891;28;20440;-84
2022/05/07 08:40:51;;;;;;;1.73;1.30;;;23.70;54.70;;;;;;5011146;28;20442;-84
2022/05/07 08:43:25;;;;;;;1.43;1.10;;;23.70;54.70;;;;;;5011054;28;20408;-84
2022/05/07 08:45:53;;;;;;;2.73;1.13;;;23.70;54.70;;;;;;5008217;28;20413;-84
2022/05/07 08:48:20;;;;;;;1.70;1.43;;;23.70;54.70;;;;;;5010771;28;20409;-83
2022/05/07 08:50:48;;;;;;;1.60;1.20;;;23.70;54.70;;;;;;5007842;28;20455;-83
2022/05/07 08:53:16;;;;;;;1.30;1.13;;;23.70;54.70;;;;;;5009000;28;20512;-83
2022/05/07 08:55:43;;;;;;;1.37;1.27;;;23.70;54.60;;;;;;5014336;28;20429;-83
2022/05/07 08:58:13;;;;;;;1.60;1.20;;;23.70;54.60;;;;;;5011179;28;20436;-83
2022/05/07 09:00:45;;;;;;;2.50;1.17;;;23.70;54.60;;;;;;4994112;28;20434;-83
2022/05/07 09:03:17;;;;;;;1.37;1.13;;;23.70;54.60;;;;;;5012152;28;20404;-83
2022/05/07 09:09:08;;;;;;;1.53;1.30;;;23.70;54.60;;;;;;5005082;28;20375;-83
2022/05/07 09:11:44;;;;;;;1.50;1.10;;;23.70;54.70;;;;;;4987853;28;20413;-84
2022/05/07 09:14:14;;;;;;;1.57;1.10;;;23.70;54.70;;;;;;5001427;28;20416;-84
2022/05/07 09:16:46;;;;;;;1.17;1.00;;;23.70;54.70;;;;;;5003602;28;20539;-84
2022/05/07 09:19:31;;;;;;;1.30;1.10;;;23.70;54.70;;;;;;4995361;28;20421;-84
2022/05/07 09:22:16;;;;;;;1.40;1.20;;;23.70;54.70;;;;;;5003039;28;20413;-84
2022/05/07 09:31:31;;;;;;;1.40;1.03;;;23.70;54.70;;;;;;5018888;28;20399;-84
2022/05/07 09:36:55;;;;;;;1.90;1.17;;;23.70;54.80;;;;;;4992273;28;20546;-84
2022/05/07 09:39:21;;;;;;;1.67;1.10;;;23.70;54.80;;;;;;4994007;28;20408;-89
2022/05/07 09:41:53;;;;;;;1.40;1.20;;;23.70;54.80;;;;;;5024771;28;20468;-84
2022/05/07 09:44:21;;;;;;;2.27;1.00;;;23.70;54.80;;;;;;5012843;28;20182;-84
2022/05/07 09:46:49;;;;;;;1.67;1.23;;;23.70;54.80;;;;;;4994611;28;20424;-84
2022/05/07 09:49:16;;;;;;;1.60;1.10;;;23.70;54.80;;;;;;5001921;28;20414;-84
2022/05/07 09:51:44;;;;;;;1.43;1.10;;;23.70;55.30;;;;;;5069683;28;20472;-84
2022/05/07 10:00:07;;;;;;;1.70;1.07;;;23.70;54.70;;;;;;5103562;28;20454;-84
2022/05/07 10:03:09;;;;;;;1.30;1.20;;;23.70;54.70;;;;;;5009588;28;20416;-84
2022/05/07 10:06:23;;;;;;;1.70;1.30;;;23.70;54.70;;;;;;4993965;28;20406;-84
2022/05/07 10:09:00;;;;;;;2.00;1.80;;;23.70;54.80;;;;;;4999718;28;20427;-84
2022/05/07 10:11:27;;;;;;;1.20;1.00;;;23.70;54.80;;;;;;5012056;28;20404;-84
2022/05/07 10:13:54;;;;;;;1.37;1.23;;;23.70;54.80;;;;;;4997804;28;20416;-84
2022/05/07 10:16:21;;;;;;;3.27;1.00;;;23.70;54.80;;;;;;4994487;28;20456;-84
2022/05/07 10:18:47;;;;;;;1.63;1.30;;;23.70;54.70;;;;;;4989276;28;20426;-83
2022/05/07 10:21:21;;;;;;;1.60;1.20;;;23.70;54.70;;;;;;5004853;28;20500;-85
2022/05/07 10:23:53;;;;;;;1.47;1.27;;;23.70;54.70;;;;;;5011139;28;20479;-84
2022/05/07 10:26:39;;;;;;;1.43;1.20;;;23.70;54.70;;;;;;5005061;28;20450;-84
2022/05/07 10:29:06;;;;;;;2.17;1.30;;;23.80;54.80;;;;;;5001673;28;20412;-84
2022/05/07 10:31:45;;;;;;;3.13;1.53;;;23.70;54.70;;;;;;5008178;28;20448;-84
2022/05/07 10:34:32;;;;;;;1.10;0.93;;;23.70;54.70;;;;;;5011419;28;20420;-84
2022/05/07 10:37:02;;;;;;;1.77;1.10;;;23.80;54.80;;;;;;5025979;28;20474;-84
2022/05/07 10:39:28;;;;;;;1.87;1.20;;;23.70;54.70;;;;;;5076737;28;20427;-84
2022/05/07 10:41:53;;;;;;;2.23;1.43;;;23.70;54.70;;;;;;5017754;28;20413;-84
2022/05/07 10:44:34;;;;;;;1.53;1.40;;;23.70;54.60;;;;;;5012208;28;20477;-84
2022/05/07 10:47:16;;;;;;;1.83;1.20;;;23.80;54.70;;;;;;5011455;28;20192;-84
2022/05/07 10:50:12;;;;;;;2.00;1.40;;;23.80;55.30;;;;;;5011686;28;20430;-84
2022/05/07 10:52:38;;;;;;;2.40;1.40;;;23.80;54.70;;;;;;5010599;28;20420;-84
2022/05/07 10:55:09;;;;;;;2.50;1.40;;;23.70;54.70;;;;;;4994191;28;20426;-84
2022/05/07 10:57:43;;;;;;;2.30;1.53;;;23.70;54.70;;;;;;5010808;28;20506;-84
2022/05/07 11:00:30;;;;;;;1.70;1.43;;;23.80;54.80;;;;;;5010818;28;20428;-84
2022/05/07 11:03:00;;;;;;;1.67;1.40;;;23.80;54.80;;;;;;5010506;28;20417;-84
2022/05/07 11:05:36;;;;;;;2.67;1.77;;;23.70;54.70;;;;;;5010688;28;20516;-84
2022/05/07 11:08:04;;;;;;;3.57;1.60;;;23.80;54.80;;;;;;4991191;28;20959;-84
2022/05/07 11:10:31;;;;;;;4.27;2.10;;;23.70;54.70;;;;;;5008666;28;20420;-84
2022/05/07 11:13:15;;;;;;;2.40;1.67;;;23.70;54.70;;;;;;5011265;28;20424;-84
2022/05/07 11:15:43;;;;;;;3.10;1.73;;;23.80;54.70;;;;;;5011166;28;20440;-84
2022/05/07 11:18:19;;;;;;;7.10;1.70;;;23.80;54.70;;;;;;5003211;28;20444;-84
2022/05/07 11:20:46;;;;;;;2.70;1.53;;;23.80;54.70;;;;;;5011474;28;20458;-84
2022/05/07 11:23:14;;;;;;;3.27;1.80;;;23.80;54.70;;;;;;5007841;28;20417;-84
2022/05/07 11:25:40;;;;;;;2.27;1.50;;;23.80;54.70;;;;;;5010243;28;20420;-84
2022/05/07 11:28:09;;;;;;;2.50;1.73;;;23.80;54.70;;;;;;5010959;28;20438;-84
2022/05/07 11:30:43;;;;;;;3.47;2.20;;;23.80;54.70;;;;;;5011331;28;20420;-84
2022/05/07 11:33:09;;;;;;;2.00;1.60;;;23.80;54.70;;;;;;5009285;28;20769;-84
2022/05/07 11:35:35;;;;;;;3.27;1.70;;;23.80;54.70;;;;;;5010091;28;20416;-84
2022/05/07 11:38:13;;;;;;;2.83;1.93;;;23.80;54.70;;;;;;5009569;28;20201;-84
2022/05/07 11:40:39;;;;;;;4.00;2.20;;;23.80;54.70;;;;;;4970816;28;20420;-84
2022/05/07 11:45:50;;;;;;;3.80;2.10;;;23.80;54.70;;;;;;5011316;28;20427;-84
2022/05/07 11:48:18;;;;;;;3.50;2.10;;;23.80;54.80;;;;;;5024084;28;20446;-84
2022/05/07 11:50:56;;;;;;;4.03;2.27;;;23.70;54.70;;;;;;5010607;28;20444;-84
2022/05/07 11:53:26;;;;;;;5.43;2.17;;;23.80;54.80;;;;;;5003539;28;20664;-84
2022/05/07 11:56:06;;;;;;;5.73;2.23;;;23.80;54.80;;;;;;5006077;28;20422;-84
2022/05/07 11:58:49;;;;;;;4.60;2.83;;;23.80;54.80;;;;;;5009060;28;20452;-85
2022/05/07 12:01:22;;;;;;;7.83;6.20;;;23.80;54.80;;;;;;5013464;28;20414;-84
2022/05/07 12:03:52;;;;;;;15.20;11.73;;;23.80;54.80;;;;;;5007944;28;20424;-84
2022/05/07 12:06:30;;;;;;;30.43;25.40;;;23.80;54.90;;;;;;5013432;28;20451;-86
2022/05/07 12:08:56;;;;;;;43.10;34.60;;;23.80;54.90;;;;;;5003664;28;20433;-89
2022/05/07 12:11:26;;;;;;;51.53;42.60;;;23.80;54.90;;;;;;5005400;28;20968;-84
2022/05/07 12:13:54;;;;;;;73.93;52.73;;;23.80;55.00;;;;;;5011504;28;20503;-84
2022/05/07 12:19:06;;;;;;;73.00;62.20;;;23.80;55.00;;;;;;5016243;28;20448;-85
2022/05/07 12:30:04;;;;;;;67.23;54.27;;;23.80;55.10;;;;;;5017781;28;20436;-84
2022/05/07 12:32:34;;;;;;;64.43;51.30;;;23.80;55.10;;;;;;5014340;28;20431;-84
2022/05/07 12:35:05;;;;;;;62.17;53.47;;;23.80;55.10;;;;;;5010132;28;20413;-84
2022/05/07 12:37:59;;;;;;;71.00;56.67;;;23.80;55.10;;;;;;5003496;28;20467;-84
2022/05/07 12:40:30;;;;;;;72.03;56.90;;;23.80;55.10;;;;;;5009645;28;20484;-84
2022/05/07 12:42:58;;;;;;;67.00;52.70;;;23.80;55.20;;;;;;5003805;28;20403;-86
2022/05/07 12:45:28;;;;;;;61.80;51.40;;;23.80;55.20;;;;;;5005204;28;20504;-84
2022/05/07 12:47:55;;;;;;;60.33;49.30;;;23.80;55.20;;;;;;4991203;28;20436;-84
2022/05/07 12:50:29;;;;;;;57.87;48.87;;;23.80;55.20;;;;;;5010963;28;20428;-84
2022/05/07 12:52:56;;;;;;;55.57;49.43;;;23.80;55.20;;;;;;5005967;28;20423;-84
2022/05/07 12:55:22;;;;;;;59.33;47.33;;;23.80;55.20;;;;;;5014758;28;20514;-84
2022/05/07 12:57:53;;;;;;;58.37;47.23;;;23.80;55.20;;;;;;5012593;28;20459;-84
2022/05/07 13:00:22;;;;;;;53.07;44.40;;;23.80;55.20;;;;;;5006300;28;20420;-84
2022/05/07 13:03:00;;;;;;;53.17;42.83;;;23.70;55.10;;;;;;5010781;28;20428;-84
2022/05/07 13:05:26;;;;;;;45.73;39.20;;;23.80;55.10;;;;;;5007764;28;20424;-84
2022/05/07 13:07:54;;;;;;;48.57;40.30;;;23.80;55.10;;;;;;4993278;28;20459;-84
2022/05/07 13:10:24;;;;;;;46.53;40.20;;;23.80;55.10;;;;;;5006174;28;20428;-84
2022/05/07 13:12:50;;;;;;;46.80;39.27;;;23.80;55.10;;;;;;5005669;28;20436;-84
2022/05/07 13:15:19;;;;;;;42.97;36.47;;;23.80;55.10;;;;;;5009829;28;20554;-84
2022/05/07 13:17:49;;;;;;;43.80;34.63;;;23.80;55.10;;;;;;5032104;28;21135;-84
2022/05/07 13:23:39;;;;;;;36.87;30.40;;;23.80;55.10;;;;;;5008930;28;20391;-84
2022/05/07 13:26:07;;;;;;;36.17;28.90;;;23.70;54.90;;;;;;4996667;28;20414;-84
2022/05/07 13:28:36;;;;;;;31.43;28.00;;;23.70;54.80;;;;;;5006919;28;20485;-84
2022/05/07 13:31:04;;;;;;;29.17;25.27;;;23.70;54.80;;;;;;5005013;28;20439;-84
2022/05/07 13:33:50;;;;;;;29.03;24.93;;;23.70;54.80;;;;;;5016457;28;20474;-84
2022/05/07 13:36:24;;;;;;;30.10;23.63;;;23.70;54.60;;;;;;4999065;28;20417;-84
2022/05/07 13:38:50;;;;;;;24.60;21.80;;;23.70;54.50;;;;;;5007304;28;20500;-84
2022/05/07 13:41:20;;;;;;;26.43;21.80;;;23.70;54.50;;;;;;5010361;28;20454;-84
2022/05/07 13:43:47;;;;;;;22.13;19.50;;;23.70;54.50;;;;;;5006552;28;20421;-84
2022/05/07 13:46:14;;;;;;;23.70;18.93;;;23.70;54.20;;;;;;5003644;28;20474;-84
2022/05/07 13:48:41;;;;;;;24.80;19.33;;;23.70;54.10;;;;;;5010659;28;20446;-85
2022/05/07 13:51:16;;;;;;;21.67;17.50;;;23.70;53.90;;;;;;5002123;28;20412;-84
2022/05/07 13:53:43;;;;;;;19.53;17.43;;;23.70;53.80;;;;;;5006323;28;20422;-83
2022/05/07 13:56:09;;;;;;;21.03;16.67;;;23.70;53.70;;;;;;4995812;28;20416;-84
2022/05/07 13:58:41;;;;;;;18.13;14.90;;;23.70;53.80;;;;;;4993469;28;20559;-84
2022/05/07 14:01:09;;;;;;;19.53;15.97;;;23.70;53.70;;;;;;5011979;28;20412;-84
2022/05/07 14:03:36;;;;;;;16.50;14.80;;;23.70;53.50;;;;;;5006987;28;20417;-84
2022/05/07 14:06:02;;;;;;;15.10;13.50;;;23.70;53.50;;;;;;5011806;28;20433;-83
2022/05/07 14:08:28;;;;;;;17.27;14.30;;;23.70;53.50;;;;;;5013310;28;20424;-84
2022/05/07 14:11:01;;;;;;;14.23;12.73;;;23.70;53.50;;;;;;5012820;28;20185;-84
2022/05/07 14:13:30;;;;;;;13.33;11.93;;;23.70;53.60;;;;;;4985544;28;20425;-84
2022/05/07 14:15:56;;;;;;;15.43;12.23;;;23.70;53.30;;;;;;5011623;28;20428;-84
2022/05/07 14:18:22;;;;;;;12.83;11.53;;;23.70;53.20;;;;;;5005660;28;20502;-84
2022/05/07 14:20:50;;;;;;;12.33;10.67;;;23.70;53.30;;;;;;5003071;28;20429;-84